sensor_id;sensor_type;location;lat;lon;timestamp;P1;durP1;ratioP1;P2;durP2;ratioP2
5393;SDS011;2720;52.396;10.064;2022-07-11T00:00:11;3.80;;;0.70;;
5393;SDS011;2720;52.396;10.064;2022-07-11T00:02:40;10.03;;;1.87;;
5393;SDS011;2720;52.396;10.064;2022-07-11T00:05:07;1.60;;;0.70;;
5393;SDS011;2720;52.396;10.064;2022-07-11T00:07:35;3.33;;;0.90;;
5393;SDS011;2720;52.396;10.064;2022-07-11T00:10:03;0.87;;;0.87;;
5393;SDS011;2720;52.396;10.064;2022-07-11T00:12:30;2.23;;;1.00;;
5393;SDS011;2720;52.396;10.064;2022-07-11T00:14:57;0.80;;;0.80;;
5393;SDS011;2720;52.396;10.064;2022-07-11T00:17:26;0.90;;;0.80;;
5393;SDS011;2720;52.396;10.064;2022-07-11T00:19:53;5.90;;;1.90;;
5393;SDS011;2720;52.396;10.064;2022-07-11T00:22:20;9.87;;;2.03;;
5393;SDS011;2720;52.396;10.064;2022-07-11T00:24:47;1.93;;;1.53;;
5393;SDS011;2720;52.396;10.064;2022-07-11T00:27:16;2.80;;;1.50;;
5393;SDS011;2720;52.396;10.064;2022-07-11T00:29:45;2.10;;;1.87;;
5393;SDS011;2720;52.396;10.064;2022-07-11T00:32:14;4.10;;;1.60;;
5393;SDS011;2720;52.396;10.064;2022-07-11T00:34:43;3.33;;;1.73;;
5393;SDS011;2720;52.396;10.064;2022-07-11T00:37:10;1.47;;;1.37;;
5393;SDS011;2720;52.396;10.064;2022-07-11T00:39:37;3.13;;;1.97;;
5393;SDS011;2720;52.396;10.064;2022-07-11T00:42:06;4.47;;;2.20;;
5393;SDS011;2720;52.396;10.064;2022-07-11T00:44:36;5.40;;;1.40;;
5393;SDS011;2720;52.396;10.064;2022-07-11T00:47:03;1.80;;;1.37;;
5393;SDS011;2720;52.396;10.064;2022-07-11T00:49:31;1.47;;;1.10;;
5393;SDS011;2720;52.396;10.064;2022-07-11T00:52:00;1.57;;;1.03;;
5393;SDS011;2720;52.396;10.064;2022-07-11T00:54:27;2.63;;;1.23;;
5393;SDS011;2720;52.396;10.064;2022-07-11T00:56:58;2.10;;;1.00;;
5393;SDS011;2720;52.396;10.064;2022-07-11T00:59:29;2.93;;;1.27;;
5393;SDS011;2720;52.396;10.064;2022-07-11T01:01:56;2.73;;;1.20;;
5393;SDS011;2720;52.396;10.064;2022-07-11T01:04:23;2.07;;;1.20;;
5393;SDS011;2720;52.396;10.064;2022-07-11T01:06:50;1.07;;;1.07;;
5393;SDS011;2720;52.396;10.064;2022-07-11T01:09:19;1.77;;;0.73;;
5393;SDS011;2720;52.396;10.064;2022-07-11T01:11:46;7.60;;;1.10;;
5393;SDS011;2720;52.396;10.064;2022-07-11T01:14:13;3.27;;;1.60;;
5393;SDS011;2720;52.396;10.064;2022-07-11T01:16:40;4.07;;;1.37;;
5393;SDS011;2720;52.396;10.064;2022-07-11T01:19:07;1.83;;;1.00;;
5393;SDS011;2720;52.396;10.064;2022-07-11T01:21:35;4.23;;;1.20;;
5393;SDS011;2720;52.396;10.064;2022-07-11T01:24:07;2.93;;;1.97;;
5393;SDS011;2720;52.396;10.064;2022-07-11T01:26:36;6.90;;;0.97;;
5393;SDS011;2720;52.396;10.064;2022-07-11T01:29:04;1.30;;;1.10;;
5393;SDS011;2720;52.396;10.064;2022-07-11T01:31:32;1.33;;;1.20;;
5393;SDS011;2720;52.396;10.064;2022-07-11T01:34:00;3.07;;;1.17;;
5393;SDS011;2720;52.396;10.064;2022-07-11T01:36:30;1.63;;;1.10;;
5393;SDS011;2720;52.396;10.064;2022-07-11T01:39:00;4.40;;;1.27;;
5393;SDS011;2720;52.396;10.064;2022-07-11T01:41:29;3.10;;;1.53;;
5393;SDS011;2720;52.396;10.064;2022-07-11T01:43:59;1.20;;;1.00;;
5393;SDS011;2720;52.396;10.064;2022-07-11T01:46:29;2.10;;;1.40;;
5393;SDS011;2720;52.396;10.064;2022-07-11T01:48:56;4.80;;;1.43;;
5393;SDS011;2720;52.396;10.064;2022-07-11T01:51:23;2.97;;;1.40;;
5393;SDS011;2720;52.396;10.064;2022-07-11T01:53:52;5.00;;;1.60;;
5393;SDS011;2720;52.396;10.064;2022-07-11T01:56:20;5.57;;;1.70;;
5393;SDS011;2720;52.396;10.064;2022-07-11T01:58:49;7.40;;;1.70;;
5393;SDS011;2720;52.396;10.064;2022-07-11T02:01:16;1.57;;;1.47;;
5393;SDS011;2720;52.396;10.064;2022-07-11T02:03:43;5.33;;;1.40;;
5393;SDS011;2720;52.396;10.064;2022-07-11T02:06:10;3.03;;;1.83;;
5393;SDS011;2720;52.396;10.064;2022-07-11T02:08:37;2.33;;;1.33;;
5393;SDS011;2720;52.396;10.064;2022-07-11T02:11:04;6.90;;;1.73;;
5393;SDS011;2720;52.396;10.064;2022-07-11T02:13:31;2.70;;;1.80;;
5393;SDS011;2720;52.396;10.064;2022-07-11T02:16:00;3.10;;;1.97;;
5393;SDS011;2720;52.396;10.064;2022-07-11T02:18:30;1.87;;;1.40;;
5393;SDS011;2720;52.396;10.064;2022-07-11T02:20:58;3.70;;;2.20;;
5393;SDS011;2720;52.396;10.064;2022-07-11T02:23:27;2.67;;;1.63;;
5393;SDS011;2720;52.396;10.064;2022-07-11T02:25:55;2.50;;;1.40;;
5393;SDS011;2720;52.396;10.064;2022-07-11T02:28:22;2.43;;;1.90;;
5393;SDS011;2720;52.396;10.064;2022-07-11T02:30:49;1.90;;;1.40;;
5393;SDS011;2720;52.396;10.064;2022-07-11T02:33:17;1.80;;;1.70;;
5393;SDS011;2720;52.396;10.064;2022-07-11T02:35:45;1.90;;;1.80;;
5393;SDS011;2720;52.396;10.064;2022-07-11T02:38:12;2.20;;;1.63;;
5393;SDS011;2720;52.396;10.064;2022-07-11T02:40:40;3.33;;;2.40;;
5393;SDS011;2720;52.396;10.064;2022-07-11T02:43:07;1.70;;;1.60;;
5393;SDS011;2720;52.396;10.064;2022-07-11T02:45:34;2.03;;;1.93;;
5393;SDS011;2720;52.396;10.064;2022-07-11T02:48:01;2.53;;;2.10;;
5393;SDS011;2720;52.396;10.064;2022-07-11T02:50:30;2.23;;;2.10;;
5393;SDS011;2720;52.396;10.064;2022-07-11T02:52:59;12.90;;;2.40;;
5393;SDS011;2720;52.396;10.064;2022-07-11T02:55:27;4.40;;;2.30;;
5393;SDS011;2720;52.396;10.064;2022-07-11T02:57:54;3.33;;;2.33;;
5393;SDS011;2720;52.396;10.064;2022-07-11T03:00:23;10.00;;;2.40;;
5393;SDS011;2720;52.396;10.064;2022-07-11T03:02:52;6.50;;;3.23;;
5393;SDS011;2720;52.396;10.064;2022-07-11T03:05:19;2.83;;;2.27;;
5393;SDS011;2720;52.396;10.064;2022-07-11T03:07:47;6.67;;;2.50;;
5393;SDS011;2720;52.396;10.064;2022-07-11T03:10:14;6.63;;;2.50;;
5393;SDS011;2720;52.396;10.064;2022-07-11T03:12:42;3.53;;;1.87;;
5393;SDS011;2720;52.396;10.064;2022-07-11T03:15:10;8.20;;;2.37;;
5393;SDS011;2720;52.396;10.064;2022-07-11T03:17:37;2.23;;;2.10;;
5393;SDS011;2720;52.396;10.064;2022-07-11T03:20:05;4.33;;;2.20;;
5393;SDS011;2720;52.396;10.064;2022-07-11T03:22:33;2.00;;;1.80;;
5393;SDS011;2720;52.396;10.064;2022-07-11T03:25:01;6.17;;;2.10;;
5393;SDS011;2720;52.396;10.064;2022-07-11T03:27:30;3.97;;;2.80;;
5393;SDS011;2720;52.396;10.064;2022-07-11T03:29:58;4.87;;;2.47;;
5393;SDS011;2720;52.396;10.064;2022-07-11T03:32:25;5.03;;;2.30;;
5393;SDS011;2720;52.396;10.064;2022-07-11T03:34:54;7.80;;;2.57;;
5393;SDS011;2720;52.396;10.064;2022-07-11T03:37:39;2.50;;;2.00;;
5393;SDS011;2720;52.396;10.064;2022-07-11T03:40:08;11.70;;;2.50;;
5393;SDS011;2720;52.396;10.064;2022-07-11T03:42:37;2.17;;;1.97;;
5393;SDS011;2720;52.396;10.064;2022-07-11T03:45:05;3.97;;;2.03;;
5393;SDS011;2720;52.396;10.064;2022-07-11T03:47:35;7.67;;;2.57;;
5393;SDS011;2720;52.396;10.064;2022-07-11T03:50:04;4.50;;;2.30;;
5393;SDS011;2720;52.396;10.064;2022-07-11T03:52:32;4.30;;;2.70;;
5393;SDS011;2720;52.396;10.064;2022-07-11T03:54:59;5.33;;;2.13;;
5393;SDS011;2720;52.396;10.064;2022-07-11T03:57:30;2.83;;;2.30;;
5393;SDS011;2720;52.396;10.064;2022-07-11T04:00:00;2.50;;;2.30;;
5393;SDS011;2720;52.396;10.064;2022-07-11T04:02:30;2.10;;;2.00;;
5393;SDS011;2720;52.396;10.064;2022-07-11T04:04:57;4.83;;;2.67;;
5393;SDS011;2720;52.396;10.064;2022-07-11T04:07:27;4.00;;;2.53;;
5393;SDS011;2720;52.396;10.064;2022-07-11T04:09:56;5.93;;;2.57;;
5393;SDS011;2720;52.396;10.064;2022-07-11T04:12:27;4.17;;;2.87;;
5393;SDS011;2720;52.396;10.064;2022-07-11T04:14:57;7.13;;;2.60;;
5393;SDS011;2720;52.396;10.064;2022-07-11T04:17:27;4.53;;;2.53;;
5393;SDS011;2720;52.396;10.064;2022-07-11T04:19:54;5.57;;;2.40;;
5393;SDS011;2720;52.396;10.064;2022-07-11T04:22:21;4.40;;;3.53;;
5393;SDS011;2720;52.396;10.064;2022-07-11T04:24:51;5.27;;;2.57;;
5393;SDS011;2720;52.396;10.064;2022-07-11T04:27:23;4.90;;;2.47;;
5393;SDS011;2720;52.396;10.064;2022-07-11T04:29:54;3.70;;;3.00;;
5393;SDS011;2720;52.396;10.064;2022-07-11T04:32:22;5.03;;;3.17;;
5393;SDS011;2720;52.396;10.064;2022-07-11T04:34:49;15.67;;;3.27;;
5393;SDS011;2720;52.396;10.064;2022-07-11T04:37:19;10.27;;;3.23;;
5393;SDS011;2720;52.396;10.064;2022-07-11T04:39:46;5.80;;;3.03;;
5393;SDS011;2720;52.396;10.064;2022-07-11T04:42:13;2.73;;;2.53;;
5393;SDS011;2720;52.396;10.064;2022-07-11T04:44:40;7.67;;;3.87;;
5393;SDS011;2720;52.396;10.064;2022-07-11T04:47:07;7.63;;;2.77;;
5393;SDS011;2720;52.396;10.064;2022-07-11T04:49:39;7.30;;;3.27;;
5393;SDS011;2720;52.396;10.064;2022-07-11T04:52:06;3.10;;;2.50;;
5393;SDS011;2720;52.396;10.064;2022-07-11T04:54:33;11.13;;;2.77;;
5393;SDS011;2720;52.396;10.064;2022-07-11T04:57:03;4.03;;;3.20;;
5393;SDS011;2720;52.396;10.064;2022-07-11T04:59:31;5.80;;;3.50;;
5393;SDS011;2720;52.396;10.064;2022-07-11T05:01:58;8.63;;;3.43;;
5393;SDS011;2720;52.396;10.064;2022-07-11T05:04:26;12.90;;;3.80;;
5393;SDS011;2720;52.396;10.064;2022-07-11T05:06:55;9.67;;;2.80;;
5393;SDS011;2720;52.396;10.064;2022-07-11T05:09:24;7.47;;;3.37;;
5393;SDS011;2720;52.396;10.064;2022-07-11T05:11:51;6.97;;;3.20;;
5393;SDS011;2720;52.396;10.064;2022-07-11T05:14:19;4.70;;;3.13;;
5393;SDS011;2720;52.396;10.064;2022-07-11T05:16:47;10.53;;;2.80;;
5393;SDS011;2720;52.396;10.064;2022-07-11T05:19:15;12.80;;;3.30;;
5393;SDS011;2720;52.396;10.064;2022-07-11T05:21:43;7.20;;;3.70;;
5393;SDS011;2720;52.396;10.064;2022-07-11T05:24:13;6.90;;;3.60;;
5393;SDS011;2720;52.396;10.064;2022-07-11T05:26:43;4.70;;;3.17;;
5393;SDS011;2720;52.396;10.064;2022-07-11T05:29:12;5.47;;;3.30;;
5393;SDS011;2720;52.396;10.064;2022-07-11T05:31:40;11.90;;;3.70;;
5393;SDS011;2720;52.396;10.064;2022-07-11T05:34:15;9.57;;;3.53;;
5393;SDS011;2720;52.396;10.064;2022-07-11T05:36:42;5.90;;;4.37;;
5393;SDS011;2720;52.396;10.064;2022-07-11T05:39:09;5.40;;;3.17;;
5393;SDS011;2720;52.396;10.064;2022-07-11T05:41:37;4.00;;;2.90;;
5393;SDS011;2720;52.396;10.064;2022-07-11T05:44:05;11.47;;;3.40;;
5393;SDS011;2720;52.396;10.064;2022-07-11T05:46:32;7.30;;;3.00;;
5393;SDS011;2720;52.396;10.064;2022-07-11T05:49:03;7.63;;;2.80;;
5393;SDS011;2720;52.396;10.064;2022-07-11T05:51:30;4.87;;;2.30;;
5393;SDS011;2720;52.396;10.064;2022-07-11T05:53:58;2.40;;;2.20;;
5393;SDS011;2720;52.396;10.064;2022-07-11T05:56:25;3.40;;;2.00;;
5393;SDS011;2720;52.396;10.064;2022-07-11T05:58:54;2.97;;;2.03;;
5393;SDS011;2720;52.396;10.064;2022-07-11T06:01:21;9.50;;;2.20;;
5393;SDS011;2720;52.396;10.064;2022-07-11T06:03:48;7.30;;;1.97;;
5393;SDS011;2720;52.396;10.064;2022-07-11T06:06:15;6.83;;;2.13;;
5393;SDS011;2720;52.396;10.064;2022-07-11T06:08:43;4.37;;;3.30;;
5393;SDS011;2720;52.396;10.064;2022-07-11T06:11:11;4.90;;;2.20;;
5393;SDS011;2720;52.396;10.064;2022-07-11T06:13:40;2.67;;;1.60;;
5393;SDS011;2720;52.396;10.064;2022-07-11T06:16:10;2.00;;;1.40;;
5393;SDS011;2720;52.396;10.064;2022-07-11T06:18:38;3.33;;;1.77;;
5393;SDS011;2720;52.396;10.064;2022-07-11T06:21:06;3.60;;;2.47;;
5393;SDS011;2720;52.396;10.064;2022-07-11T06:23:33;6.13;;;1.80;;
5393;SDS011;2720;52.396;10.064;2022-07-11T06:26:02;5.80;;;2.67;;
5393;SDS011;2720;52.396;10.064;2022-07-11T06:28:31;3.43;;;1.50;;
5393;SDS011;2720;52.396;10.064;2022-07-11T06:30:59;6.83;;;1.43;;
5393;SDS011;2720;52.396;10.064;2022-07-11T06:33:28;2.60;;;1.63;;
5393;SDS011;2720;52.396;10.064;2022-07-11T06:35:57;10.90;;;1.93;;
5393;SDS011;2720;52.396;10.064;2022-07-11T06:38:24;1.63;;;1.30;;
5393;SDS011;2720;52.396;10.064;2022-07-11T06:40:53;4.33;;;0.97;;
5393;SDS011;2720;52.396;10.064;2022-07-11T06:43:22;3.37;;;1.20;;
5393;SDS011;2720;52.396;10.064;2022-07-11T06:45:50;12.10;;;2.03;;
5393;SDS011;2720;52.396;10.064;2022-07-11T06:48:17;3.73;;;1.80;;
5393;SDS011;2720;52.396;10.064;2022-07-11T06:50:47;5.30;;;1.53;;
5393;SDS011;2720;52.396;10.064;2022-07-11T06:53:14;2.10;;;1.20;;
5393;SDS011;2720;52.396;10.064;2022-07-11T06:55:42;0.83;;;0.83;;
5393;SDS011;2720;52.396;10.064;2022-07-11T06:58:09;2.60;;;0.90;;
5393;SDS011;2720;52.396;10.064;2022-07-11T07:00:56;1.60;;;1.30;;
5393;SDS011;2720;52.396;10.064;2022-07-11T07:03:24;1.37;;;1.20;;
5393;SDS011;2720;52.396;10.064;2022-07-11T07:05:52;3.97;;;1.10;;
5393;SDS011;2720;52.396;10.064;2022-07-11T07:08:21;16.57;;;1.30;;
5393;SDS011;2720;52.396;10.064;2022-07-11T07:10:49;1.97;;;1.23;;
5393;SDS011;2720;52.396;10.064;2022-07-11T07:13:17;7.40;;;2.63;;
5393;SDS011;2720;52.396;10.064;2022-07-11T07:15:43;8.40;;;1.37;;
5393;SDS011;2720;52.396;10.064;2022-07-11T07:18:11;5.33;;;1.30;;
5393;SDS011;2720;52.396;10.064;2022-07-11T07:20:38;3.47;;;0.90;;
5393;SDS011;2720;52.396;10.064;2022-07-11T07:23:07;2.00;;;1.00;;
5393;SDS011;2720;52.396;10.064;2022-07-11T07:25:34;1.87;;;0.60;;
5393;SDS011;2720;52.396;10.064;2022-07-11T07:28:02;1.23;;;0.80;;
5393;SDS011;2720;52.396;10.064;2022-07-11T07:30:30;4.10;;;0.80;;
5393;SDS011;2720;52.396;10.064;2022-07-11T07:32:57;1.87;;;1.03;;
5393;SDS011;2720;52.396;10.064;2022-07-11T07:35:25;3.13;;;1.20;;
5393;SDS011;2720;52.396;10.064;2022-07-11T07:37:52;2.07;;;0.90;;
5393;SDS011;2720;52.396;10.064;2022-07-11T07:40:21;4.70;;;0.80;;
5393;SDS011;2720;52.396;10.064;2022-07-11T07:42:48;1.50;;;1.40;;
5393;SDS011;2720;52.396;10.064;2022-07-11T07:45:15;1.20;;;1.20;;
5393;SDS011;2720;52.396;10.064;2022-07-11T07:47:42;6.00;;;1.30;;
5393;SDS011;2720;52.396;10.064;2022-07-11T07:50:11;1.80;;;0.70;;
5393;SDS011;2720;52.396;10.064;2022-07-11T07:52:40;4.10;;;0.90;;
5393;SDS011;2720;52.396;10.064;2022-07-11T07:55:09;1.67;;;0.60;;
5393;SDS011;2720;52.396;10.064;2022-07-11T07:57:38;1.60;;;0.70;;
5393;SDS011;2720;52.396;10.064;2022-07-11T08:00:05;3.23;;;0.67;;
5393;SDS011;2720;52.396;10.064;2022-07-11T08:02:51;6.53;;;0.80;;
5393;SDS011;2720;52.396;10.064;2022-07-11T08:05:18;1.53;;;0.67;;
5393;SDS011;2720;52.396;10.064;2022-07-11T08:07:45;2.00;;;1.33;;
5393;SDS011;2720;52.396;10.064;2022-07-11T08:10:12;1.53;;;0.87;;
5393;SDS011;2720;52.396;10.064;2022-07-11T08:12:41;3.70;;;1.27;;
5393;SDS011;2720;52.396;10.064;2022-07-11T08:15:09;0.53;;;0.40;;
5393;SDS011;2720;52.396;10.064;2022-07-11T08:17:37;1.27;;;1.00;;
5393;SDS011;2720;52.396;10.064;2022-07-11T08:20:06;5.43;;;0.83;;
5393;SDS011;2720;52.396;10.064;2022-07-11T08:22:35;2.13;;;0.63;;
5393;SDS011;2720;52.396;10.064;2022-07-11T08:25:03;0.80;;;0.67;;
5393;SDS011;2720;52.396;10.064;2022-07-11T08:27:30;1.20;;;0.70;;
5393;SDS011;2720;52.396;10.064;2022-07-11T08:30:00;1.77;;;0.70;;
5393;SDS011;2720;52.396;10.064;2022-07-11T08:32:28;7.23;;;0.60;;
5393;SDS011;2720;52.396;10.064;2022-07-11T08:34:55;0.93;;;0.90;;
5393;SDS011;2720;52.396;10.064;2022-07-11T08:37:25;2.13;;;0.80;;
5393;SDS011;2720;52.396;10.064;2022-07-11T08:39:54;4.80;;;0.70;;
5393;SDS011;2720;52.396;10.064;2022-07-11T08:42:21;3.30;;;0.97;;
5393;SDS011;2720;52.396;10.064;2022-07-11T08:44:50;1.27;;;1.00;;
5393;SDS011;2720;52.396;10.064;2022-07-11T08:47:19;2.40;;;1.00;;
5393;SDS011;2720;52.396;10.064;2022-07-11T08:49:47;0.83;;;0.83;;
5393;SDS011;2720;52.396;10.064;2022-07-11T08:52:18;1.77;;;0.80;;
5393;SDS011;2720;52.396;10.064;2022-07-11T08:54:47;2.33;;;1.10;;
5393;SDS011;2720;52.396;10.064;2022-07-11T08:57:16;1.33;;;0.67;;
5393;SDS011;2720;52.396;10.064;2022-07-11T08:59:44;0.87;;;0.70;;
5393;SDS011;2720;52.396;10.064;2022-07-11T09:02:13;3.70;;;1.00;;
5393;SDS011;2720;52.396;10.064;2022-07-11T09:04:42;1.10;;;0.70;;
5393;SDS011;2720;52.396;10.064;2022-07-11T09:07:09;1.13;;;0.80;;
5393;SDS011;2720;52.396;10.064;2022-07-11T09:09:36;1.57;;;0.90;;
5393;SDS011;2720;52.396;10.064;2022-07-11T09:12:09;0.80;;;0.80;;
5393;SDS011;2720;52.396;10.064;2022-07-11T09:14:45;1.93;;;1.10;;
5393;SDS011;2720;52.396;10.064;2022-07-11T09:17:23;1.80;;;0.93;;
5393;SDS011;2720;52.396;10.064;2022-07-11T09:19:52;2.67;;;1.23;;
5393;SDS011;2720;52.396;10.064;2022-07-11T09:22:20;0.90;;;0.90;;
5393;SDS011;2720;52.396;10.064;2022-07-11T09:25:05;1.90;;;0.70;;
5393;SDS011;2720;52.396;10.064;2022-07-11T09:27:57;0.63;;;0.63;;
5393;SDS011;2720;52.396;10.064;2022-07-11T09:30:26;1.20;;;1.10;;
5393;SDS011;2720;52.396;10.064;2022-07-11T09:32:58;1.97;;;0.90;;
5393;SDS011;2720;52.396;10.064;2022-07-11T09:35:30;0.73;;;0.73;;
5393;SDS011;2720;52.396;10.064;2022-07-11T09:38:02;2.27;;;0.80;;
5393;SDS011;2720;52.396;10.064;2022-07-11T09:40:30;1.80;;;0.90;;
5393;SDS011;2720;52.396;10.064;2022-07-11T09:42:57;1.27;;;0.70;;
5393;SDS011;2720;52.396;10.064;2022-07-11T09:45:27;2.10;;;1.40;;
5393;SDS011;2720;52.396;10.064;2022-07-11T09:47:57;0.73;;;0.60;;
5393;SDS011;2720;52.396;10.064;2022-07-11T09:50:26;2.53;;;0.70;;
5393;SDS011;2720;52.396;10.064;2022-07-11T09:52:57;6.90;;;0.90;;
5393;SDS011;2720;52.396;10.064;2022-07-11T09:55:31;0.90;;;0.70;;
5393;SDS011;2720;52.396;10.064;2022-07-11T09:58:02;2.40;;;1.00;;
5393;SDS011;2720;52.396;10.064;2022-07-11T10:00:31;5.80;;;0.90;;
5393;SDS011;2720;52.396;10.064;2022-07-11T10:02:58;0.77;;;0.70;;
5393;SDS011;2720;52.396;10.064;2022-07-11T10:05:26;5.97;;;0.67;;
5393;SDS011;2720;52.396;10.064;2022-07-11T10:07:54;3.57;;;1.13;;
5393;SDS011;2720;52.396;10.064;2022-07-11T10:10:22;0.70;;;0.70;;
5393;SDS011;2720;52.396;10.064;2022-07-11T10:12:53;1.50;;;0.87;;
5393;SDS011;2720;52.396;10.064;2022-07-11T10:15:26;1.70;;;0.67;;
5393;SDS011;2720;52.396;10.064;2022-07-11T10:17:58;3.70;;;0.60;;
5393;SDS011;2720;52.396;10.064;2022-07-11T10:20:34;3.43;;;0.70;;
5393;SDS011;2720;52.396;10.064;2022-07-11T10:23:06;2.03;;;0.60;;
5393;SDS011;2720;52.396;10.064;2022-07-11T10:25:40;0.60;;;0.50;;
5393;SDS011;2720;52.396;10.064;2022-07-11T10:28:12;4.30;;;1.00;;
5393;SDS011;2720;52.396;10.064;2022-07-11T10:30:45;3.77;;;0.93;;
5393;SDS011;2720;52.396;10.064;2022-07-11T10:33:12;1.07;;;0.63;;
5393;SDS011;2720;52.396;10.064;2022-07-11T10:35:40;1.03;;;0.50;;
5393;SDS011;2720;52.396;10.064;2022-07-11T10:38:10;1.17;;;0.77;;
5393;SDS011;2720;52.396;10.064;2022-07-11T10:40:40;2.10;;;1.17;;
5393;SDS011;2720;52.396;10.064;2022-07-11T10:43:08;1.33;;;0.50;;
5393;SDS011;2720;52.396;10.064;2022-07-11T10:48:18;5.83;;;0.60;;
5393;SDS011;2720;52.396;10.064;2022-07-11T10:50:45;2.63;;;1.20;;
5393;SDS011;2720;52.396;10.064;2022-07-11T10:53:20;1.67;;;0.80;;
5393;SDS011;2720;52.396;10.064;2022-07-11T10:55:52;2.73;;;0.63;;
5393;SDS011;2720;52.396;10.064;2022-07-11T10:58:28;2.80;;;0.60;;
5393;SDS011;2720;52.396;10.064;2022-07-11T11:01:08;0.50;;;0.50;;
5393;SDS011;2720;52.396;10.064;2022-07-11T11:03:39;1.90;;;0.40;;
5393;SDS011;2720;52.396;10.064;2022-07-11T11:06:07;1.07;;;0.50;;
5393;SDS011;2720;52.396;10.064;2022-07-11T11:08:45;2.40;;;0.77;;
5393;SDS011;2720;52.396;10.064;2022-07-11T11:19:53;1.70;;;0.50;;
5393;SDS011;2720;52.396;10.064;2022-07-11T11:22:21;0.70;;;0.40;;
5393;SDS011;2720;52.396;10.064;2022-07-11T11:24:51;4.13;;;0.60;;
5393;SDS011;2720;52.396;10.064;2022-07-11T11:27:19;2.73;;;0.63;;
5393;SDS011;2720;52.396;10.064;2022-07-11T11:29:50;1.10;;;0.67;;
5393;SDS011;2720;52.396;10.064;2022-07-11T11:32:18;2.20;;;1.00;;
5393;SDS011;2720;52.396;10.064;2022-07-11T11:34:48;0.57;;;0.57;;
5393;SDS011;2720;52.396;10.064;2022-07-11T11:37:16;0.40;;;0.40;;
5393;SDS011;2720;52.396;10.064;2022-07-11T11:39:47;0.60;;;0.50;;
5393;SDS011;2720;52.396;10.064;2022-07-11T11:42:16;2.00;;;0.90;;
5393;SDS011;2720;52.396;10.064;2022-07-11T11:44:47;0.50;;;0.50;;
5393;SDS011;2720;52.396;10.064;2022-07-11T11:47:17;3.90;;;0.70;;
5393;SDS011;2720;52.396;10.064;2022-07-11T11:49:47;0.90;;;0.40;;
5393;SDS011;2720;52.396;10.064;2022-07-11T11:52:17;0.30;;;0.30;;
5393;SDS011;2720;52.396;10.064;2022-07-11T11:54:52;0.77;;;0.40;;
5393;SDS011;2720;52.396;10.064;2022-07-11T11:57:26;0.70;;;0.40;;
5393;SDS011;2720;52.396;10.064;2022-07-11T11:59:56;0.40;;;0.30;;
5393;SDS011;2720;52.396;10.064;2022-07-11T12:02:27;0.50;;;0.50;;
5393;SDS011;2720;52.396;10.064;2022-07-11T12:04:58;0.50;;;0.30;;
5393;SDS011;2720;52.396;10.064;2022-07-11T12:07:28;11.30;;;0.40;;
5393;SDS011;2720;52.396;10.064;2022-07-11T12:09:58;1.17;;;0.50;;
5393;SDS011;2720;52.396;10.064;2022-07-11T12:12:30;2.70;;;0.70;;
5393;SDS011;2720;52.396;10.064;2022-07-11T12:18:21;1.00;;;1.00;;
5393;SDS011;2720;52.396;10.064;2022-07-11T12:20:52;0.70;;;0.60;;
5393;SDS011;2720;52.396;10.064;2022-07-11T12:23:23;1.60;;;0.80;;
5393;SDS011;2720;52.396;10.064;2022-07-11T12:25:54;0.73;;;0.73;;
5393;SDS011;2720;52.396;10.064;2022-07-11T12:28:25;0.70;;;0.70;;
5393;SDS011;2720;52.396;10.064;2022-07-11T12:30:55;1.10;;;1.00;;
5393;SDS011;2720;52.396;10.064;2022-07-11T12:33:26;0.70;;;0.70;;
5393;SDS011;2720;52.396;10.064;2022-07-11T12:35:57;0.87;;;0.87;;
5393;SDS011;2720;52.396;10.064;2022-07-11T12:41:11;0.50;;;0.50;;
5393;SDS011;2720;52.396;10.064;2022-07-11T12:43:44;1.00;;;0.70;;
5393;SDS011;2720;52.396;10.064;2022-07-11T12:46:32;3.50;;;0.50;;
5393;SDS011;2720;52.396;10.064;2022-07-11T12:49:02;0.80;;;0.80;;
5393;SDS011;2720;52.396;10.064;2022-07-11T12:51:31;0.60;;;0.50;;
5393;SDS011;2720;52.396;10.064;2022-07-11T12:54:00;0.70;;;0.50;;
5393;SDS011;2720;52.396;10.064;2022-07-11T12:56:28;0.40;;;0.30;;
5393;SDS011;2720;52.396;10.064;2022-07-11T12:58:57;0.60;;;0.60;;
5393;SDS011;2720;52.396;10.064;2022-07-11T13:01:24;0.90;;;0.50;;
5393;SDS011;2720;52.396;10.064;2022-07-11T13:03:52;0.43;;;0.43;;
5393;SDS011;2720;52.396;10.064;2022-07-11T13:06:20;0.60;;;0.40;;
5393;SDS011;2720;52.396;10.064;2022-07-11T13:09:07;0.50;;;0.50;;
5393;SDS011;2720;52.396;10.064;2022-07-11T13:11:33;2.20;;;0.67;;
5393;SDS011;2720;52.396;10.064;2022-07-11T13:14:02;0.90;;;0.50;;
5393;SDS011;2720;52.396;10.064;2022-07-11T13:16:49;1.90;;;0.60;;
5393;SDS011;2720;52.396;10.064;2022-07-11T13:19:16;0.80;;;0.53;;
5393;SDS011;2720;52.396;10.064;2022-07-11T13:21:43;1.27;;;0.40;;
5393;SDS011;2720;52.396;10.064;2022-07-11T13:24:10;2.67;;;1.00;;
5393;SDS011;2720;52.396;10.064;2022-07-11T13:26:37;10.63;;;0.90;;
5393;SDS011;2720;52.396;10.064;2022-07-11T13:29:05;1.33;;;0.60;;
5393;SDS011;2720;52.396;10.064;2022-07-11T13:31:32;1.33;;;0.60;;
5393;SDS011;2720;52.396;10.064;2022-07-11T13:33:59;2.37;;;0.90;;
5393;SDS011;2720;52.396;10.064;2022-07-11T13:36:26;0.87;;;0.87;;
5393;SDS011;2720;52.396;10.064;2022-07-11T13:38:53;0.63;;;0.63;;
5393;SDS011;2720;52.396;10.064;2022-07-11T13:41:20;1.03;;;1.03;;
5393;SDS011;2720;52.396;10.064;2022-07-11T13:43:47;1.70;;;0.97;;
5393;SDS011;2720;52.396;10.064;2022-07-11T13:46:15;1.23;;;0.90;;
5393;SDS011;2720;52.396;10.064;2022-07-11T13:48:43;1.77;;;0.80;;
5393;SDS011;2720;52.396;10.064;2022-07-11T13:51:11;1.37;;;0.53;;
5393;SDS011;2720;52.396;10.064;2022-07-11T13:53:38;1.00;;;0.90;;
5393;SDS011;2720;52.396;10.064;2022-07-11T13:56:05;2.47;;;1.17;;
5393;SDS011;2720;52.396;10.064;2022-07-11T13:58:32;2.00;;;1.00;;
5393;SDS011;2720;52.396;10.064;2022-07-11T14:00:59;0.90;;;0.90;;
5393;SDS011;2720;52.396;10.064;2022-07-11T14:03:28;0.50;;;0.50;;
5393;SDS011;2720;52.396;10.064;2022-07-11T14:05:55;0.70;;;0.70;;
5393;SDS011;2720;52.396;10.064;2022-07-11T14:08:22;1.10;;;0.70;;
5393;SDS011;2720;52.396;10.064;2022-07-11T14:10:49;5.03;;;1.00;;
5393;SDS011;2720;52.396;10.064;2022-07-11T14:13:16;0.83;;;0.83;;
5393;SDS011;2720;52.396;10.064;2022-07-11T14:15:44;3.80;;;1.00;;
5393;SDS011;2720;52.396;10.064;2022-07-11T14:18:12;2.60;;;0.70;;
5393;SDS011;2720;52.396;10.064;2022-07-11T14:20:40;0.90;;;0.90;;
5393;SDS011;2720;52.396;10.064;2022-07-11T14:23:07;0.50;;;0.50;;
5393;SDS011;2720;52.396;10.064;2022-07-11T14:25:34;0.80;;;0.73;;
5393;SDS011;2720;52.396;10.064;2022-07-11T14:28:01;0.60;;;0.60;;
5393;SDS011;2720;52.396;10.064;2022-07-11T14:30:31;0.80;;;0.67;;
5393;SDS011;2720;52.396;10.064;2022-07-11T14:32:58;0.80;;;0.80;;
5393;SDS011;2720;52.396;10.064;2022-07-11T14:35:26;4.47;;;0.80;;
5393;SDS011;2720;52.396;10.064;2022-07-11T14:37:55;0.40;;;0.40;;
5393;SDS011;2720;52.396;10.064;2022-07-11T14:40:22;0.43;;;0.43;;
5393;SDS011;2720;52.396;10.064;2022-07-11T14:42:49;1.90;;;0.70;;
5393;SDS011;2720;52.396;10.064;2022-07-11T14:45:17;3.43;;;0.60;;
5393;SDS011;2720;52.396;10.064;2022-07-11T14:47:44;3.90;;;0.67;;
5393;SDS011;2720;52.396;10.064;2022-07-11T14:50:11;0.50;;;0.43;;
5393;SDS011;2720;52.396;10.064;2022-07-11T14:52:38;2.70;;;0.90;;
5393;SDS011;2720;52.396;10.064;2022-07-11T14:55:07;1.30;;;1.20;;
5393;SDS011;2720;52.396;10.064;2022-07-11T14:57:34;0.50;;;0.50;;
5393;SDS011;2720;52.396;10.064;2022-07-11T15:00:02;1.40;;;0.50;;
5393;SDS011;2720;52.396;10.064;2022-07-11T15:02:30;0.40;;;0.40;;
5393;SDS011;2720;52.396;10.064;2022-07-11T15:05:17;0.40;;;0.40;;
5393;SDS011;2720;52.396;10.064;2022-07-11T15:07:44;1.53;;;0.40;;
5393;SDS011;2720;52.396;10.064;2022-07-11T15:10:30;0.30;;;0.30;;
5393;SDS011;2720;52.396;10.064;2022-07-11T15:13:14;1.03;;;0.40;;
5393;SDS011;2720;52.396;10.064;2022-07-11T15:15:41;0.73;;;0.60;;
5393;SDS011;2720;52.396;10.064;2022-07-11T15:18:08;0.67;;;0.50;;
5393;SDS011;2720;52.396;10.064;2022-07-11T15:20:35;1.03;;;0.50;;
5393;SDS011;2720;52.396;10.064;2022-07-11T15:23:02;0.50;;;0.40;;
5393;SDS011;2720;52.396;10.064;2022-07-11T15:25:30;0.40;;;0.40;;
5393;SDS011;2720;52.396;10.064;2022-07-11T15:27:57;0.73;;;0.43;;